Time;durP1;ratioP1;P1;durP2;ratioP2;P2;SDS_P1;SDS_P2;PMS_P1;PMS_P2;Temp;Humidity;BMP_temperature;BMP_pressure;BME280_temperature;BME280_humidity;BME280_pressure;Samples;Min_cycle;Max_cycle;Signal;HPM_P1;HPM_P2
2022/07/25 00:00:07;;;;;;;3.40;2.70;;;22.20;86.20;;;;;;5102922;28;20023;-59
2022/07/25 00:02:33;;;;;;;3.13;2.83;;;22.20;86.20;;;;;;5102584;28;20471;-58
2022/07/25 00:04:59;;;;;;;2.83;2.63;;;22.20;86.10;;;;;;5117724;28;20022;-59
2022/07/25 00:07:26;;;;;;;3.20;2.78;;;22.20;86.20;;;;;;5101997;28;20055;-58
2022/07/25 00:09:52;;;;;;;3.28;2.95;;;22.20;86.10;;;;;;5101556;28;20032;-59
2022/07/25 00:12:18;;;;;;;3.97;3.13;;;22.20;86.30;;;;;;5095970;28;20028;-59
2022/07/25 00:14:43;;;;;;;3.60;3.30;;;22.20;86.30;;;;;;5099317;28;20019;-59
2022/07/25 00:17:09;;;;;;;2.72;2.53;;;22.20;86.40;;;;;;5102951;28;20024;-59
2022/07/25 00:19:35;;;;;;;3.05;2.83;;;22.20;86.30;;;;;;5106091;28;20111;-59
2022/07/25 00:22:01;;;;;;;2.80;2.60;;;22.20;86.50;;;;;;5106500;28;20457;-58
2022/07/25 00:24:27;;;;;;;3.22;2.92;;;22.20;86.50;;;;;;5087412;28;20134;-59
2022/07/25 00:26:52;;;;;;;3.72;3.35;;;22.30;86.60;;;;;;5098205;28;20387;-59
2022/07/25 00:29:18;;;;;;;3.42;2.92;;;22.30;86.70;;;;;;5097076;28;20504;-58
2022/07/25 00:31:44;;;;;;;3.05;2.85;;;22.30;86.70;;;;;;5096470;28;20051;-58
2022/07/25 00:34:09;;;;;;;3.67;3.38;;;22.30;86.60;;;;;;5083865;28;20144;-59
2022/07/25 00:36:35;;;;;;;3.60;3.30;;;22.30;86.60;;;;;;5102415;28;20027;-58
2022/07/25 00:39:01;;;;;;;3.45;3.05;;;22.30;86.60;;;;;;5108333;28;20019;-59
2022/07/25 00:41:27;;;;;;;3.25;2.90;;;22.30;86.60;;;;;;5114619;28;20042;-59
2022/07/25 00:43:52;;;;;;;3.08;2.78;;;22.30;86.70;;;;;;5106827;28;20028;-58
2022/07/25 00:46:18;;;;;;;3.63;3.22;;;22.30;86.60;;;;;;5112873;28;20028;-58
2022/07/25 00:48:44;;;;;;;3.15;2.85;;;22.30;86.60;;;;;;5113773;28;20028;-59
2022/07/25 00:51:10;;;;;;;2.95;2.75;;;22.30;86.60;;;;;;5105837;28;20086;-58
2022/07/25 00:53:37;;;;;;;3.30;3.00;;;22.30;86.60;;;;;;5105241;28;20020;-59
2022/07/25 00:56:04;;;;;;;3.17;2.88;;;22.40;86.70;;;;;;5105142;28;20038;-59
2022/07/25 00:58:30;;;;;;;3.97;2.95;;;22.30;86.70;;;;;;5099123;28;20016;-59
2022/07/25 01:00:56;;;;;;;3.00;2.80;;;22.40;86.80;;;;;;5112962;28;20067;-59
2022/07/25 01:03:22;;;;;;;3.40;3.10;;;22.40;86.60;;;;;;5109231;28;20051;-59
2022/07/25 01:05:49;;;;;;;2.95;2.65;;;22.30;86.50;;;;;;5105135;28;20039;-59
2022/07/25 01:08:17;;;;;;;3.22;2.92;;;22.30;86.50;;;;;;5105914;28;20075;-59
2022/07/25 01:10:44;;;;;;;2.95;2.63;;;22.30;86.40;;;;;;5108605;28;20024;-58
2022/07/25 01:13:10;;;;;;;2.40;2.20;;;22.40;86.40;;;;;;5104754;28;20058;-58
2022/07/25 01:15:35;;;;;;;4.00;3.58;;;22.40;86.30;;;;;;5108952;28;20498;-59
2022/07/25 01:18:01;;;;;;;3.58;3.28;;;22.40;86.30;;;;;;5113115;28;20019;-59
2022/07/25 01:20:28;;;;;;;3.80;3.30;;;22.40;86.30;;;;;;5112506;28;20073;-58
2022/07/25 01:22:54;;;;;;;3.50;3.20;;;22.40;86.20;;;;;;5101395;28;20400;-59
2022/07/25 01:25:21;;;;;;;3.25;2.88;;;22.40;86.10;;;;;;5102173;28;20032;-59
2022/07/25 01:27:47;;;;;;;3.20;3.00;;;22.40;86.00;;;;;;5100237;27;20107;-59
2022/07/25 01:30:15;;;;;;;4.05;3.55;;;22.40;85.90;;;;;;5105987;27;20038;-58
2022/07/25 01:32:42;;;;;;;3.72;3.35;;;22.50;86.00;;;;;;5106841;28;20077;-59
2022/07/25 01:35:08;;;;;;;4.00;3.60;;;22.50;85.90;;;;;;5111895;28;20047;-58
2022/07/25 01:37:34;;;;;;;4.38;3.97;;;22.40;86.00;;;;;;5101376;28;20028;-59
2022/07/25 01:40:01;;;;;;;4.78;3.90;;;22.40;86.20;;;;;;5112639;28;20114;-58
2022/07/25 01:42:27;;;;;;;4.00;3.33;;;22.40;86.20;;;;;;5109427;28;20028;-59
2022/07/25 01:44:53;;;;;;;5.18;3.78;;;22.30;86.30;;;;;;5109771;28;20475;-58
2022/07/25 01:47:18;;;;;;;3.63;3.33;;;22.30;86.60;;;;;;5102819;28;20020;-58
2022/07/25 01:49:44;;;;;;;4.15;3.53;;;22.30;86.60;;;;;;5098602;28;20042;-59
2022/07/25 01:52:11;;;;;;;4.15;3.75;;;22.30;86.70;;;;;;5111408;27;20051;-59
2022/07/25 01:54:36;;;;;;;4.50;3.65;;;22.30;86.60;;;;;;5113175;28;20094;-58
2022/07/25 01:57:03;;;;;;;3.78;3.38;;;22.40;86.50;;;;;;5105721;28;20061;-59
2022/07/25 01:59:29;;;;;;;4.07;3.15;;;22.40;86.50;;;;;;5100022;28;20085;-58
2022/07/25 02:01:54;;;;;;;3.30;3.00;;;22.40;86.30;;;;;;5112094;28;20031;-58
2022/07/25 02:04:20;;;;;;;4.10;3.60;;;22.40;86.20;;;;;;5102010;28;20028;-59
2022/07/25 02:06:46;;;;;;;4.63;4.07;;;22.40;86.20;;;;;;5105275;28;20024;-59
2022/07/25 02:09:11;;;;;;;4.88;3.92;;;22.40;86.20;;;;;;5105674;27;20063;-59
2022/07/25 02:11:37;;;;;;;5.10;4.60;;;22.40;86.30;;;;;;5107198;28;20034;-58
2022/07/25 02:14:03;;;;;;;5.65;3.90;;;22.40;86.30;;;;;;5103055;28;20410;-58
2022/07/25 02:16:29;;;;;;;5.30;4.80;;;22.30;86.30;;;;;;5103456;28;20021;-59
2022/07/25 02:18:55;;;;;;;4.93;4.28;;;22.30;86.60;;;;;;5105299;28;20081;-59
2022/07/25 02:21:20;;;;;;;5.13;4.57;;;22.30;86.50;;;;;;5102552;28;20016;-58
2022/07/25 02:23:46;;;;;;;7.03;5.32;;;22.30;86.80;;;;;;5101629;28;20027;-58
2022/07/25 02:26:12;;;;;;;4.93;4.43;;;22.20;86.80;;;;;;5105550;28;20023;-59
2022/07/25 02:28:39;;;;;;;5.70;4.35;;;22.20;87.20;;;;;;5101310;28;20047;-59
2022/07/25 02:31:05;;;;;;;5.40;4.63;;;22.10;87.30;;;;;;5105821;28;20055;-59
2022/07/25 02:33:31;;;;;;;6.18;5.55;;;22.10;88.10;;;;;;5098167;28;20047;-58
2022/07/25 02:35:57;;;;;;;5.93;5.30;;;22.10;87.70;;;;;;5109988;28;20457;-59
2022/07/25 02:38:22;;;;;;;6.72;5.95;;;22.10;87.80;;;;;;5100194;28;20020;-59
2022/07/25 02:40:50;;;;;;;6.35;5.60;;;22.00;88.00;;;;;;5094733;28;20069;-58
2022/07/25 02:43:16;;;;;;;6.20;5.57;;;22.00;88.20;;;;;;5101160;28;20035;-59
2022/07/25 02:45:41;;;;;;;7.43;6.10;;;22.00;88.50;;;;;;5099672;28;20039;-59
2022/07/25 02:48:07;;;;;;;6.90;5.60;;;21.90;88.70;;;;;;5110791;28;20024;-59
2022/07/25 02:50:33;;;;;;;6.55;5.90;;;21.90;88.80;;;;;;5100467;28;20050;-58
2022/07/25 02:52:59;;;;;;;6.55;5.40;;;21.90;89.00;;;;;;5107122;28;20487;-59
2022/07/25 02:55:25;;;;;;;6.95;6.13;;;21.90;89.10;;;;;;5109544;28;20098;-59
2022/07/25 02:57:50;;;;;;;6.88;5.88;;;21.90;89.30;;;;;;5110528;28;20023;-58
2022/07/25 03:00:17;;;;;;;8.23;7.13;;;21.90;89.50;;;;;;5110242;28;20383;-59
2022/07/25 03:02:43;;;;;;;7.15;5.80;;;21.90;89.70;;;;;;5100401;28;20027;-59
2022/07/25 03:05:13;;;;;;;6.90;6.07;;;21.90;89.80;;;;;;5097654;28;20031;-59
2022/07/25 03:07:39;;;;;;;7.93;6.55;;;21.90;89.90;;;;;;5106517;28;20110;-59
2022/07/25 03:10:07;;;;;;;7.55;6.20;;;21.90;89.90;;;;;;5110484;27;20035;-58
2022/07/25 03:12:32;;;;;;;7.97;6.78;;;21.90;90.00;;;;;;5109538;27;20371;-58
2022/07/25 03:14:59;;;;;;;7.30;6.20;;;21.90;90.10;;;;;;5111296;27;20034;-59
2022/07/25 03:17:25;;;;;;;7.45;6.65;;;21.90;90.20;;;;;;5109104;28;20418;-59
2022/07/25 03:19:51;;;;;;;6.90;6.20;;;21.90;90.30;;;;;;5108287;28;20110;-59
2022/07/25 03:22:17;;;;;;;8.13;6.60;;;21.90;90.30;;;;;;5120850;27;20098;-59
2022/07/25 03:24:42;;;;;;;7.68;6.40;;;21.80;90.40;;;;;;5106451;28;20069;-58
2022/07/25 03:27:08;;;;;;;8.45;7.53;;;21.80;90.50;;;;;;5098426;28;20108;-58
2022/07/25 03:29:34;;;;;;;8.70;7.80;;;21.80;90.50;;;;;;5107574;28;20023;-59
2022/07/25 03:32:00;;;;;;;8.50;6.65;;;21.80;90.60;;;;;;5104026;28;20016;-59
2022/07/25 03:34:26;;;;;;;8.00;6.70;;;21.80;90.60;;;;;;5108564;28;20027;-59
2022/07/25 03:36:52;;;;;;;7.85;6.65;;;21.80;90.70;;;;;;5108989;28;20024;-58
2022/07/25 03:39:19;;;;;;;7.60;5.55;;;21.80;90.80;;;;;;5103902;28;20035;-58
2022/07/25 03:41:45;;;;;;;7.32;6.00;;;21.80;90.80;;;;;;5106677;28;20020;-59
2022/07/25 03:44:11;;;;;;;7.82;7.03;;;21.90;91.00;;;;;;5099881;28;20106;-59
2022/07/25 03:46:36;;;;;;;6.88;6.18;;;21.80;91.00;;;;;;5100600;28;20108;-58
2022/07/25 03:49:02;;;;;;;7.70;6.90;;;21.90;91.30;;;;;;5104197;28;20223;-59
2022/07/25 03:51:28;;;;;;;7.65;6.47;;;21.90;91.00;;;;;;5102502;28;20485;-58
2022/07/25 03:54:03;;;;;;;6.78;6.07;;;21.90;90.90;;;;;;5101692;28;20035;-59
2022/07/25 03:56:35;;;;;;;8.38;7.38;;;21.90;90.90;;;;;;5101359;28;20057;-58
2022/07/25 03:59:01;;;;;;;7.80;7.00;;;21.90;90.90;;;;;;5106865;28;20028;-59
2022/07/25 04:01:27;;;;;;;7.65;6.43;;;21.80;90.70;;;;;;5101136;28;20030;-58
2022/07/25 04:03:52;;;;;;;8.27;7.05;;;21.80;90.80;;;;;;5096513;28;20396;-59
2022/07/25 04:06:18;;;;;;;8.25;6.85;;;21.80;90.90;;;;;;5100795;28;20398;-58
2022/07/25 04:08:44;;;;;;;7.70;6.90;;;21.80;90.80;;;;;;5101805;28;20104;-59
2022/07/25 04:11:10;;;;;;;8.20;7.10;;;21.70;90.90;;;;;;5113860;28;20043;-59
2022/07/25 04:13:36;;;;;;;7.85;6.90;;;21.70;90.90;;;;;;5113342;28;20032;-59
2022/07/25 04:16:01;;;;;;;8.10;6.60;;;21.70;90.90;;;;;;5104153;28;20028;-59
2022/07/25 04:18:27;;;;;;;9.80;7.40;;;21.70;90.90;;;;;;5103266;28;20028;-58
2022/07/25 04:20:53;;;;;;;7.40;6.60;;;21.70;90.90;;;;;;5099297;28;20085;-59
2022/07/25 04:23:18;;;;;;;8.93;6.82;;;21.70;91.00;;;;;;5109868;28;20052;-59
2022/07/25 04:25:44;;;;;;;8.10;6.60;;;21.60;91.00;;;;;;5105827;28;20414;-58
2022/07/25 04:28:10;;;;;;;7.13;5.90;;;21.60;91.00;;;;;;5109436;28;20027;-59
2022/07/25 04:30:36;;;;;;;7.43;6.30;;;21.60;91.00;;;;;;5108969;28;20032;-59
2022/07/25 04:33:01;;;;;;;7.43;6.60;;;21.60;91.00;;;;;;5107905;28;20020;-59
2022/07/25 04:35:27;;;;;;;7.28;6.28;;;21.60;91.00;;;;;;5110130;28;20026;-59
2022/07/25 04:37:53;;;;;;;6.82;6.05;;;21.60;91.00;;;;;;5107205;28;20030;-59
2022/07/25 04:40:18;;;;;;;7.15;6.45;;;21.70;91.10;;;;;;5109589;27;20063;-59
2022/07/25 04:42:44;;;;;;;7.63;6.32;;;21.70;91.10;;;;;;5105674;28;20059;-59
2022/07/25 04:45:10;;;;;;;7.30;6.50;;;21.70;90.90;;;;;;5109370;28;20031;-59
2022/07/25 04:47:36;;;;;;;6.85;6.13;;;21.70;90.90;;;;;;5108162;28;20036;-59
2022/07/25 04:50:01;;;;;;;7.72;5.97;;;21.70;90.80;;;;;;5101224;28;20039;-59
2022/07/25 04:52:27;;;;;;;6.28;5.68;;;21.80;90.60;;;;;;5096358;27;20027;-59
2022/07/25 04:54:53;;;;;;;7.57;6.50;;;21.80;90.50;;;;;;5102570;28;20064;-59
2022/07/25 04:57:18;;;;;;;8.88;6.60;;;21.80;90.50;;;;;;5110569;28;20020;-59
2022/07/25 04:59:44;;;;;;;6.60;5.90;;;21.80;90.40;;;;;;5105593;28;20042;-59
2022/07/25 05:02:10;;;;;;;7.43;6.57;;;21.80;90.40;;;;;;5105965;28;20418;-59
2022/07/25 05:04:36;;;;;;;7.57;6.57;;;21.80;90.20;;;;;;5108684;28;20032;-59
2022/07/25 05:07:02;;;;;;;7.90;6.55;;;21.80;90.10;;;;;;5104690;28;20039;-59
2022/07/25 05:09:27;;;;;;;8.20;6.50;;;21.80;90.10;;;;;;5097381;28;20021;-59
2022/07/25 05:11:53;;;;;;;8.52;7.20;;;21.90;90.10;;;;;;5106801;28;20020;-59
2022/07/25 05:14:19;;;;;;;8.68;7.75;;;21.90;90.00;;;;;;5104963;28;20122;-59
2022/07/25 05:16:44;;;;;;;8.43;7.53;;;21.80;90.00;;;;;;5097714;28;20032;-59
2022/07/25 05:19:10;;;;;;;8.63;7.10;;;21.90;89.80;;;;;;5104389;28;20027;-59
2022/07/25 05:21:37;;;;;;;7.82;7.03;;;21.80;89.80;;;;;;5102585;27;20035;-59
2022/07/25 05:24:03;;;;;;;8.13;6.55;;;21.80;89.70;;;;;;5104992;28;20020;-59
2022/07/25 05:26:29;;;;;;;8.00;6.50;;;21.80;89.80;;;;;;5107388;28;20475;-59
2022/07/25 05:28:55;;;;;;;7.95;6.82;;;21.70;89.80;;;;;;5103874;28;20024;-59
2022/07/25 05:31:20;;;;;;;6.88;6.18;;;21.80;90.00;;;;;;5108903;27;20566;-59
2022/07/25 05:33:46;;;;;;;6.95;6.20;;;21.80;90.00;;;;;;5110867;27;20050;-59
2022/07/25 05:36:12;;;;;;;7.60;5.82;;;21.80;90.00;;;;;;5103064;27;20065;-59
2022/07/25 05:38:37;;;;;;;8.48;6.80;;;21.80;90.00;;;;;;5109067;28;20055;-58
2022/07/25 05:41:03;;;;;;;8.88;7.97;;;21.80;90.00;;;;;;5095986;28;20028;-59
2022/07/25 05:43:29;;;;;;;8.07;7.10;;;21.90;90.00;;;;;;5102771;28;20035;-59
2022/07/25 05:46:02;;;;;;;7.57;6.68;;;21.90;90.00;;;;;;5099091;28;20047;-59
2022/07/25 05:48:28;;;;;;;7.82;6.50;;;21.90;90.00;;;;;;5108579;28;20051;-59
2022/07/25 05:50:54;;;;;;;7.95;5.90;;;21.90;90.00;;;;;;5104537;28;20070;-59
2022/07/25 05:53:19;;;;;;;7.90;6.78;;;21.90;89.70;;;;;;5099087;27;20031;-59
2022/07/25 05:55:45;;;;;;;6.47;5.63;;;22.00;89.80;;;;;;5103682;28;20106;-59
2022/07/25 05:58:11;;;;;;;6.57;5.75;;;22.10;89.60;;;;;;5103011;28;20066;-59
2022/07/25 06:00:38;;;;;;;7.70;6.45;;;22.20;89.20;;;;;;5094478;27;20081;-59
2022/07/25 06:03:03;;;;;;;6.88;6.03;;;22.30;88.60;;;;;;5102117;28;20565;-59
2022/07/25 06:05:29;;;;;;;6.53;5.57;;;22.30;88.20;;;;;;5104192;27;20059;-59
2022/07/25 06:07:55;;;;;;;7.22;6.22;;;22.40;88.00;;;;;;5101987;27;20471;-59
2022/07/25 06:10:21;;;;;;;6.85;5.60;;;22.50;87.50;;;;;;5108064;27;20040;-60
2022/07/25 06:12:46;;;;;;;6.85;6.15;;;22.60;86.90;;;;;;5098826;28;20019;-59
2022/07/25 06:15:12;;;;;;;6.80;6.10;;;22.70;87.00;;;;;;5103045;28;20088;-60
2022/07/25 06:17:38;;;;;;;6.70;6.00;;;22.80;86.60;;;;;;5106870;27;20023;-59
2022/07/25 06:20:04;;;;;;;6.90;5.75;;;23.00;86.40;;;;;;5101928;27;20062;-59
2022/07/25 06:22:30;;;;;;;6.70;5.50;;;23.10;86.00;;;;;;5100613;27;20058;-58
2022/07/25 06:24:56;;;;;;;6.60;5.90;;;23.20;85.40;;;;;;5109761;27;20051;-59
2022/07/25 06:27:21;;;;;;;7.10;5.65;;;23.30;84.90;;;;;;5104830;27;20034;-59
2022/07/25 06:29:47;;;;;;;6.90;5.85;;;23.40;84.70;;;;;;5101662;27;20031;-59
2022/07/25 06:32:13;;;;;;;6.80;5.85;;;23.50;84.40;;;;;;5099572;27;20548;-59
2022/07/25 06:34:38;;;;;;;8.95;6.97;;;23.60;84.00;;;;;;5095357;27;20412;-58
2022/07/25 06:37:04;;;;;;;8.23;6.78;;;23.70;83.70;;;;;;5093064;27;20055;-59
2022/07/25 06:39:30;;;;;;;7.13;5.85;;;23.70;83.20;;;;;;5097818;27;20039;-60
2022/07/25 06:41:58;;;;;;;8.70;6.72;;;23.80;82.50;;;;;;5099548;27;20051;-59
2022/07/25 06:44:24;;;;;;;7.20;5.88;;;23.90;82.10;;;;;;5093688;27;20054;-59
2022/07/25 06:46:50;;;;;;;6.95;6.20;;;24.00;81.90;;;;;;5099869;27;20391;-59
2022/07/25 06:49:15;;;;;;;6.90;5.80;;;24.10;81.70;;;;;;5092067;27;20028;-59
2022/07/25 06:51:41;;;;;;;8.98;6.65;;;24.10;81.30;;;;;;5094724;27;20558;-58
2022/07/25 06:54:07;;;;;;;8.20;6.10;;;24.20;81.30;;;;;;5099043;27;20155;-59
2022/07/25 06:56:32;;;;;;;7.53;6.10;;;24.20;80.80;;;;;;5095161;27;20019;-59
2022/07/25 06:58:58;;;;;;;6.32;5.65;;;24.20;80.30;;;;;;5098452;27;20030;-59
2022/07/25 07:01:24;;;;;;;8.60;6.10;;;24.20;80.10;;;;;;5089960;28;20085;-59
2022/07/25 07:03:49;;;;;;;8.10;5.97;;;24.20;80.10;;;;;;5088320;27;20027;-59
2022/07/25 07:06:15;;;;;;;7.53;6.30;;;24.20;79.90;;;;;;5088459;28;20038;-58
2022/07/25 07:08:41;;;;;;;6.55;5.30;;;24.20;79.80;;;;;;5087534;28;20388;-59
2022/07/25 07:11:07;;;;;;;6.57;5.95;;;24.20;79.40;;;;;;5090226;27;20444;-58
2022/07/25 07:13:33;;;;;;;7.03;5.70;;;24.20;79.30;;;;;;5072720;28;20544;-57
2022/07/25 07:15:58;;;;;;;7.68;5.60;;;24.20;79.00;;;;;;5094394;27;20088;-57
2022/07/25 07:18:24;;;;;;;6.25;5.32;;;24.10;79.30;;;;;;5097510;27;20060;-59
2022/07/25 07:20:51;;;;;;;5.95;5.32;;;24.10;79.60;;;;;;5087886;27;20594;-58
2022/07/25 07:23:16;;;;;;;6.18;5.32;;;24.10;79.30;;;;;;5084069;28;21829;-56
2022/07/25 07:25:42;;;;;;;6.50;5.68;;;24.20;79.10;;;;;;5093592;28;20023;-56
2022/07/25 07:28:08;;;;;;;6.00;5.35;;;24.20;78.50;;;;;;5093806;28;20041;-57
2022/07/25 07:30:34;;;;;;;6.13;5.50;;;24.20;78.10;;;;;;5092479;28;20019;-57
2022/07/25 07:32:59;;;;;;;6.18;5.00;;;24.20;78.00;;;;;;5097722;28;20031;-58
2022/07/25 07:35:25;;;;;;;5.63;4.60;;;24.20;77.90;;;;;;5092837;28;20066;-59
2022/07/25 07:37:51;;;;;;;6.05;4.90;;;24.20;77.80;;;;;;5092982;28;20172;-58
2022/07/25 07:40:17;;;;;;;5.97;5.38;;;24.10;77.90;;;;;;5083069;28;21721;-57
2022/07/25 07:42:44;;;;;;;6.25;5.65;;;24.00;77.70;;;;;;5089095;28;20036;-59
2022/07/25 07:45:20;;;;;;;7.13;5.97;;;24.00;77.70;;;;;;5092586;27;20107;-60
2022/07/25 07:47:47;;;;;;;5.75;5.05;;;24.00;77.60;;;;;;5091612;27;20032;-60
2022/07/25 07:50:15;;;;;;;6.50;5.65;;;23.90;77.80;;;;;;5088446;27;20035;-58
2022/07/25 07:52:42;;;;;;;6.45;5.07;;;23.90;77.90;;;;;;5088114;27;20122;-58
2022/07/25 07:57:53;;;;;;;5.85;4.80;;;23.90;77.60;;;;;;5090438;27;20038;-57
2022/07/25 08:00:20;;;;;;;6.30;5.35;;;24.00;77.30;;;;;;5088737;27;20028;-58
2022/07/25 08:02:48;;;;;;;6.78;5.43;;;23.90;77.20;;;;;;5091441;27;20131;-57
2022/07/25 08:05:27;;;;;;;5.85;5.13;;;23.90;77.30;;;;;;5096747;27;20503;-55
2022/07/25 08:07:53;;;;;;;5.75;5.13;;;23.90;77.20;;;;;;5090369;27;20063;-58
2022/07/25 08:10:20;;;;;;;5.75;4.43;;;24.00;77.30;;;;;;5088985;27;20433;-58
2022/07/25 08:12:46;;;;;;;7.00;5.30;;;24.00;77.00;;;;;;5101691;27;20028;-57
2022/07/25 08:15:13;;;;;;;6.00;5.40;;;24.00;77.10;;;;;;5091166;27;20038;-56
2022/07/25 08:17:39;;;;;;;5.82;5.18;;;24.00;77.10;;;;;;5087412;27;20020;-57
2022/07/25 08:20:07;;;;;;;7.30;5.30;;;23.90;77.10;;;;;;5089523;27;20055;-57
2022/07/25 08:22:44;;;;;;;5.93;5.05;;;24.00;77.30;;;;;;5086451;27;20849;-58
2022/07/25 08:25:13;;;;;;;6.45;5.28;;;24.00;77.30;;;;;;5093023;27;20028;-57
2022/07/25 08:27:39;;;;;;;5.70;5.00;;;24.10;77.30;;;;;;5092889;27;20036;-58
2022/07/25 08:30:06;;;;;;;5.80;4.95;;;24.10;76.90;;;;;;5085918;27;20109;-59
2022/07/25 08:32:33;;;;;;;5.20;4.70;;;24.10;76.50;;;;;;5083904;28;20020;-59
2022/07/25 08:35:01;;;;;;;6.30;5.32;;;24.20;76.60;;;;;;5085997;27;20024;-58
2022/07/25 08:37:27;;;;;;;5.97;4.82;;;24.20;76.40;;;;;;5089056;27;20024;-58
2022/07/25 08:39:53;;;;;;;5.70;5.10;;;24.30;76.30;;;;;;5082079;27;20039;-58
2022/07/25 08:42:19;;;;;;;5.60;4.97;;;24.40;75.80;;;;;;5088374;27;21626;-56
2022/07/25 08:44:55;;;;;;;4.88;4.25;;;24.40;75.00;;;;;;5089187;27;20042;-58
2022/07/25 08:47:21;;;;;;;4.97;4.47;;;24.50;74.90;;;;;;5087862;27;20064;-57
2022/07/25 08:49:47;;;;;;;5.03;4.32;;;24.50;74.40;;;;;;5090130;27;20059;-58
2022/07/25 08:52:14;;;;;;;5.05;4.43;;;24.50;74.50;;;;;;5087017;27;20719;-58
2022/07/25 08:54:41;;;;;;;5.32;4.47;;;24.50;74.20;;;;;;5089324;27;20055;-58
2022/07/25 08:57:07;;;;;;;5.10;4.60;;;24.50;74.80;;;;;;5091030;27;20132;-59
2022/07/25 08:59:32;;;;;;;5.75;4.70;;;24.50;74.10;;;;;;5089212;27;20402;-59
2022/07/25 09:02:01;;;;;;;5.00;4.30;;;24.40;74.10;;;;;;5090929;27;20133;-59
2022/07/25 09:04:29;;;;;;;4.93;4.43;;;24.40;74.30;;;;;;5088597;27;20034;-59
2022/07/25 09:06:54;;;;;;;6.20;4.65;;;24.40;74.10;;;;;;5086753;27;20042;-59
2022/07/25 09:09:29;;;;;;;5.40;4.60;;;24.40;74.00;;;;;;5085487;27;20036;-59
2022/07/25 09:11:55;;;;;;;5.22;4.72;;;24.40;73.70;;;;;;5093823;27;20711;-59
2022/07/25 09:14:21;;;;;;;5.78;4.30;;;24.30;73.60;;;;;;5089330;27;20090;-60
2022/07/25 09:16:47;;;;;;;5.65;4.40;;;24.30;73.70;;;;;;5091020;27;20024;-58
2022/07/25 09:19:14;;;;;;;5.18;4.43;;;24.30;73.60;;;;;;5089535;27;20184;-58
2022/07/25 09:21:41;;;;;;;5.35;4.60;;;24.30;73.60;;;;;;5088754;28;20036;-58
2022/07/25 09:24:18;;;;;;;4.80;4.22;;;24.30;73.40;;;;;;5087573;27;20644;-58
2022/07/25 09:26:49;;;;;;;4.32;3.75;;;24.40;73.40;;;;;;5089549;27;20023;-58
2022/07/25 09:29:20;;;;;;;5.88;4.40;;;24.40;73.50;;;;;;5088920;27;20725;-58
2022/07/25 09:31:46;;;;;;;5.47;4.35;;;24.40;73.40;;;;;;5090092;27;20036;-59
2022/07/25 09:34:15;;;;;;;5.32;4.25;;;24.40;73.50;;;;;;5084260;27;20115;-58
2022/07/25 09:36:52;;;;;;;6.00;4.53;;;24.40;73.50;;;;;;5086667;27;20118;-59
2022/07/25 09:39:18;;;;;;;5.72;4.15;;;24.40;73.30;;;;;;5088203;27;20051;-58
2022/07/25 09:41:44;;;;;;;5.47;4.50;;;24.50;73.30;;;;;;5086637;27;20027;-60
2022/07/25 09:44:23;;;;;;;4.38;3.97;;;24.50;73.20;;;;;;5089788;27;20027;-59
2022/07/25 09:46:49;;;;;;;5.30;4.80;;;24.40;72.90;;;;;;5088802;27;22293;-58
2022/07/25 09:49:14;;;;;;;7.00;4.38;;;24.30;73.00;;;;;;5090788;27;20579;-58
2022/07/25 09:51:41;;;;;;;5.13;4.40;;;24.30;73.00;;;;;;5084884;27;20058;-59
2022/07/25 09:54:07;;;;;;;5.32;4.15;;;24.30;73.30;;;;;;5083237;27;20034;-59
2022/07/25 09:56:34;;;;;;;4.70;4.20;;;24.20;73.20;;;;;;5084281;27;20467;-58
2022/07/25 09:59:01;;;;;;;6.18;4.72;;;24.20;73.40;;;;;;5085936;28;20115;-57
2022/07/25 10:01:38;;;;;;;4.72;4.15;;;24.20;74.00;;;;;;5086549;27;20027;-59
2022/07/25 10:04:30;;;;;;;4.95;4.22;;;24.20;73.10;;;;;;5090328;27;20566;-56
2022/07/25 10:07:08;;;;;;;6.38;4.82;;;24.20;73.00;;;;;;5083686;27;20468;-59
2022/07/25 10:09:44;;;;;;;5.00;4.38;;;24.10;73.10;;;;;;5086085;27;20662;-59
2022/07/25 10:12:13;;;;;;;4.90;4.10;;;24.00;73.20;;;;;;5086647;27;20143;-58
2022/07/25 10:14:39;;;;;;;5.57;4.38;;;24.00;73.50;;;;;;5084435;27;20063;-57
2022/07/25 10:17:05;;;;;;;4.40;4.00;;;24.00;73.70;;;;;;5088624;27;20428;-57
2022/07/25 10:19:40;;;;;;;5.07;4.35;;;24.00;73.50;;;;;;5087125;28;20542;-57
2022/07/25 10:22:06;;;;;;;4.75;3.80;;;24.00;73.40;;;;;;5089353;27;20031;-57
2022/07/25 10:24:34;;;;;;;5.63;4.00;;;24.10;73.40;;;;;;5091097;27;20040;-58
2022/07/25 10:27:07;;;;;;;4.85;4.25;;;24.10;73.30;;;;;;5086511;27;20028;-58
2022/07/25 10:29:34;;;;;;;4.45;3.90;;;24.20;73.20;;;;;;5094030;27;20381;-58
2022/07/25 10:32:11;;;;;;;4.38;3.88;;;24.20;73.10;;;;;;5089688;27;20027;-58
2022/07/25 10:34:38;;;;;;;4.28;3.60;;;24.20;73.00;;;;;;5089874;27;20028;-57
2022/07/25 10:37:10;;;;;;;4.70;3.63;;;24.30;73.20;;;;;;5087803;27;20027;-56
2022/07/25 10:39:40;;;;;;;4.85;4.13;;;24.30;72.80;;;;;;5093972;27;20080;-58
2022/07/25 10:42:11;;;;;;;4.80;3.80;;;24.30;72.90;;;;;;5091883;28;20035;-58
2022/07/25 10:44:46;;;;;;;4.82;3.63;;;24.30;72.60;;;;;;5086283;27;20088;-56
2022/07/25 10:47:13;;;;;;;3.97;3.38;;;24.30;72.70;;;;;;5092951;27;20051;-58
2022/07/25 10:49:44;;;;;;;4.20;3.80;;;24.30;72.80;;;;;;5085298;27;20469;-58
2022/07/25 10:52:18;;;;;;;4.75;4.05;;;24.30;72.90;;;;;;5094755;27;20614;-58
2022/07/25 10:54:55;;;;;;;5.57;4.20;;;24.20;72.90;;;;;;5097199;27;20098;-57
2022/07/25 10:57:21;;;;;;;3.97;3.58;;;24.20;73.60;;;;;;5097516;27;20047;-58
2022/07/25 10:59:47;;;;;;;5.90;3.97;;;24.20;72.80;;;;;;5094905;27;20027;-58
2022/07/25 11:02:16;;;;;;;4.78;3.90;;;24.20;72.90;;;;;;5088990;28;20031;-59
2022/07/25 11:04:45;;;;;;;3.90;3.22;;;24.10;73.00;;;;;;5091710;27;20593;-59
2022/07/25 11:07:13;;;;;;;4.20;3.80;;;24.10;73.10;;;;;;5091700;27;20032;-58
2022/07/25 11:09:41;;;;;;;4.60;4.18;;;24.10;73.00;;;;;;5087500;27;20062;-58
2022/07/25 11:12:07;;;;;;;4.22;3.83;;;24.10;72.90;;;;;;5086294;27;20106;-59
2022/07/25 11:14:40;;;;;;;3.67;3.22;;;24.10;73.20;;;;;;5084012;27;20135;-59
2022/07/25 11:17:23;;;;;;;3.92;3.53;;;24.00;73.00;;;;;;5084120;27;20028;-59
2022/07/25 11:19:58;;;;;;;4.00;3.60;;;24.10;73.20;;;;;;5089744;27;20507;-56
2022/07/25 11:22:25;;;;;;;4.78;3.83;;;24.10;73.20;;;;;;5085656;27;20035;-59
2022/07/25 11:24:51;;;;;;;4.20;3.67;;;24.10;73.20;;;;;;5087834;27;20039;-58
2022/07/25 11:27:31;;;;;;;4.22;3.83;;;24.10;73.10;;;;;;5087291;28;20673;-57
2022/07/25 11:30:19;;;;;;;3.97;3.55;;;24.10;73.10;;;;;;5086856;28;20495;-56
2022/07/25 11:32:54;;;;;;;3.78;3.38;;;24.10;73.20;;;;;;5083958;28;20361;-57
2022/07/25 11:35:24;;;;;;;4.45;3.70;;;24.10;73.00;;;;;;5081177;28;20098;-57
2022/07/25 11:37:51;;;;;;;4.15;3.53;;;24.20;73.30;;;;;;5078872;28;20019;-57
2022/07/25 11:40:17;;;;;;;4.40;4.00;;;24.10;73.30;;;;;;5079407;28;20032;-55
2022/07/25 11:42:52;;;;;;;4.05;3.65;;;24.20;73.10;;;;;;5086479;28;20043;-58
2022/07/25 11:45:20;;;;;;;4.22;3.53;;;24.20;73.10;;;;;;5089472;28;20027;-58
2022/07/25 11:48:07;;;;;;;5.30;4.40;;;24.20;73.00;;;;;;5084726;28;20109;-58
2022/07/25 11:50:35;;;;;;;5.85;4.20;;;24.30;72.80;;;;;;5074365;28;20101;-59
2022/07/25 11:53:04;;;;;;;5.00;4.50;;;24.30;73.00;;;;;;5080310;28;20044;-58
2022/07/25 11:55:32;;;;;;;7.50;6.45;;;24.40;73.50;;;;;;5078662;28;20032;-57
2022/07/25 11:58:00;;;;;;;6.65;4.82;;;24.50;73.00;;;;;;5082886;28;20025;-59
2022/07/25 12:00:26;;;;;;;5.97;4.72;;;24.60;72.70;;;;;;5084282;28;20035;-59
2022/07/25 12:02:51;;;;;;;5.88;5.25;;;24.70;72.60;;;;;;5084956;28;20031;-58
2022/07/25 12:05:21;;;;;;;5.82;5.07;;;24.80;72.30;;;;;;5081741;28;20053;-59
2022/07/25 12:07:53;;;;;;;8.63;7.03;;;24.80;72.20;;;;;;5083726;28;20372;-59
2022/07/25 12:10:23;;;;;;;5.70;4.88;;;24.80;72.00;;;;;;5080398;28;20437;-59
2022/07/25 12:12:54;;;;;;;4.90;4.18;;;24.80;71.50;;;;;;5081261;28;20034;-59
2022/07/25 12:15:24;;;;;;;;;;;24.80;71.40;;;;;;5090442;28;20031;-59
2022/07/25 12:17:51;;;;;;;4.43;3.65;;;24.80;71.20;;;;;;5099112;28;19958;-59
2022/07/25 12:20:28;;;;;;;4.70;3.42;;;24.80;71.40;;;;;;5096093;28;20081;-59
2022/07/25 12:22:56;;;;;;;5.22;4.22;;;24.80;71.40;;;;;;5083610;28;20163;-59
2022/07/25 12:25:22;;;;;;;5.38;4.30;;;24.70;71.00;;;;;;5090064;28;20035;-59
2022/07/25 12:27:48;;;;;;;8.18;5.95;;;24.70;71.10;;;;;;5081671;28;20108;-59
2022/07/25 12:30:15;;;;;;;6.40;5.07;;;24.70;71.20;;;;;;5082146;28;20048;-59
2022/07/25 12:32:41;;;;;;;7.13;5.10;;;24.70;71.20;;;;;;5084842;27;20109;-59
2022/07/25 12:35:09;;;;;;;6.03;4.05;;;24.70;71.20;;;;;;5082406;27;20395;-59
2022/07/25 12:37:35;;;;;;;5.78;4.13;;;24.70;71.10;;;;;;5080218;27;20151;-59
2022/07/25 12:40:00;;;;;;;4.53;3.72;;;24.70;71.10;;;;;;5081124;27;20049;-56
2022/07/25 12:42:27;;;;;;;4.25;3.80;;;24.80;71.00;;;;;;5081808;27;20528;-58
2022/07/25 12:44:54;;;;;;;4.10;3.70;;;24.80;70.70;;;;;;5084329;27;20043;-58
2022/07/25 12:47:20;;;;;;;4.50;3.40;;;24.90;70.50;;;;;;5086836;27;20051;-58
2022/07/25 12:49:46;;;;;;;4.18;3.25;;;24.90;70.10;;;;;;5085931;27;20042;-58